This demonstration page uses our WeatherBlox Daily Observations layout. Learn more.

Hourly Observations for June 17, 2020

Temp ( °F °C ) Dew Point ( °F °C ) Humidity (%) Winds ( mph kmh ) Pressure ( in mb ) Visibility ( mi km ) Precip ( " mm )
12:54 am 00:54 Clear 78 25.6 64 17.8 62 62 SSE 23 37 29.94 1014 10 16.0934 0 0
1:54 am 01:54 Clear 77 25 65 18.3 66 66 SSE 18 30 29.94 1014 10 16.0934 0 0
2:54 am 02:54 Clear 76 24.4 65 18.3 69 69 SSE 20 31 29.93 1014 10 16.0934 0 0
3:54 am 03:54 Clear 75 23.9 65 18.3 71 71 SSE 17 28 29.94 1014 10 16.0934 0 0
4:54 am 04:54 Clear 73 22.8 64 17.8 74 74 SSE 16 26 29.93 1014 10 16.0934 0 0
5:54 am 05:54 Clear 72 22.2 64 17.8 76 76 SSE 14 22 29.93 1014 10 16.0934 0 0
6:54 am 06:54 Sunny 73 22.8 64 17.8 74 74 SSE 13 20 29.93 1014 10 16.0934 0 0
7:54 am 07:54 Sunny 76 24.4 65 18.3 69 69 S 14 22 29.93 1014 10 16.0934 0 0
8:54 am 08:54 Sunny 79 26.1 65 18.3 62 62 S 20 31 29.93 1013 10 16.0934 0 0
9:54 am 09:54 Sunny 83 28.3 65 18.3 55 55 S 18 30 29.91 1013 10 16.0934 0 0
10:54 am 10:54 Sunny 86 30 65 18.3 49 49 S 17 28 29.9 1013 10 16.0934 0 0
11:54 am 11:54 Sunny 89 31.7 64 17.8 43 43 S 24 39 29.89 1012 10 16.0934 0 0
12:54 pm 12:54 Sunny 91 32.8 64 17.8 41 41 S 21 33 29.88 1012 10 16.0934 0 0
1:54 pm 13:54 Sunny 93 33.9 65 18.3 40 40 SSE 20 31 29.86 1011 10 16.0934 0 0
2:54 pm 14:54 Mostly Sunny 93 33.9 64 17.8 38 38 S 23 37 29.84 1011 10 16.0934 0 0
3:54 pm 15:54 Sunny 94 34.4 64 17.8 37 37 S 22 35 29.81 1010 10 16.0934 0 0
4:54 pm 16:54 Partly Cloudy 93 33.9 64 17.8 38 38 SSE 21 33 29.8 1009 10 16.0934 0 0
5:54 pm 17:54 Sunny 92 33.3 64 17.8 40 40 SSE 21 33 29.8 1009 10 16.0934 0 0
6:54 pm 18:54 Sunny 90 32.2 64 17.8 42 42 SSE 21 33 29.79 1009 10 16.0934 0 0
7:54 pm 19:54 Sunny 88 31.1 64 17.8 45 45 SSE 22 35 29.8 1009 10 16.0934 0 0
8:54 pm 20:54 Sunny 86 30 63 17.2 46 46 SSE 20 31 29.8 1009 10 16.0934 0 0
9:54 pm 21:54 Clear 84 28.9 62 16.7 48 48 SSE 17 28 29.81 1010 10 16.0934 0 0
10:54 pm 22:54 Clear 82 27.8 64 17.8 55 55 SSE 18 30 29.82 1010 10 16.0934 0 0
11:54 pm 23:54 Clear 81 27.2 64 17.8 57 57 SSE 17 28 29.83 1010 10 16.0934 0 0

Powered by AerisWeather